sensor_id;sensor_type;location;lat;lon;timestamp;pressure;altitude;pressure_sealevel;temperature;humidity
19831;BME280;10076;52.008;4.708;2023-05-11T00:02:17;101494.41;;;15.74;100.00
19831;BME280;10076;52.008;4.708;2023-05-11T00:04:42;101495.78;;;15.69;100.00
19831;BME280;10076;52.008;4.708;2023-05-11T00:07:07;101497.94;;;15.75;100.00
19831;BME280;10076;52.008;4.708;2023-05-11T00:09:33;101499.16;;;15.71;100.00
19831;BME280;10076;52.008;4.708;2023-05-11T00:11:59;101499.28;;;15.69;100.00
19831;BME280;10076;52.008;4.708;2023-05-11T00:14:25;101499.88;;;15.73;100.00
19831;BME280;10076;52.008;4.708;2023-05-11T00:16:51;101507.03;;;15.72;100.00
19831;BME280;10076;52.008;4.708;2023-05-11T00:19:16;101506.53;;;15.78;100.00
19831;BME280;10076;52.008;4.708;2023-05-11T00:21:41;101506.91;;;15.74;100.00
19831;BME280;10076;52.008;4.708;2023-05-11T00:24:07;101495.28;;;15.75;100.00
19831;BME280;10076;52.008;4.708;2023-05-11T00:26:32;101501.84;;;15.71;100.00
19831;BME280;10076;52.008;4.708;2023-05-11T00:28:57;101496.25;;;15.74;100.00
19831;BME280;10076;52.008;4.708;2023-05-11T00:31:23;101494.69;;;15.71;100.00
19831;BME280;10076;52.008;4.708;2023-05-11T00:33:48;101496.97;;;15.76;100.00
19831;BME280;10076;52.008;4.708;2023-05-11T00:36:13;101498.00;;;15.95;100.00
19831;BME280;10076;52.008;4.708;2023-05-11T00:38:39;101494.41;;;15.85;100.00
19831;BME280;10076;52.008;4.708;2023-05-11T00:41:06;101483.53;;;15.77;100.00
19831;BME280;10076;52.008;4.708;2023-05-11T00:43:32;101488.13;;;15.75;100.00
19831;BME280;10076;52.008;4.708;2023-05-11T00:45:57;101490.69;;;15.77;100.00
19831;BME280;10076;52.008;4.708;2023-05-11T00:48:22;101497.69;;;15.78;100.00
19831;BME280;10076;52.008;4.708;2023-05-11T00:50:48;101496.97;;;15.76;100.00
19831;BME280;10076;52.008;4.708;2023-05-11T00:53:13;101495.00;;;15.78;100.00
19831;BME280;10076;52.008;4.708;2023-05-11T00:55:39;101496.25;;;15.74;100.00
19831;BME280;10076;52.008;4.708;2023-05-11T00:58:04;101491.97;;;15.82;100.00
19831;BME280;10076;52.008;4.708;2023-05-11T01:00:30;101494.41;;;15.85;100.00
19831;BME280;10076;52.008;4.708;2023-05-11T01:02:55;101497.31;;;15.82;100.00
19831;BME280;10076;52.008;4.708;2023-05-11T01:05:24;101495.00;;;15.78;100.00
19831;BME280;10076;52.008;4.708;2023-05-11T01:07:56;101499.63;;;15.76;100.00
19831;BME280;10076;52.008;4.708;2023-05-11T01:13:19;101501.81;;;15.82;100.00
19831;BME280;10076;52.008;4.708;2023-05-11T01:15:50;101499.75;;;15.85;100.00
19831;BME280;10076;52.008;4.708;2023-05-11T01:20:55;101501.31;;;15.88;100.00
19831;BME280;10076;52.008;4.708;2023-05-11T01:32:11;101490.25;;;16.03;100.00
19831;BME280;10076;52.008;4.708;2023-05-11T01:34:39;101497.41;;;15.91;100.00
19831;BME280;10076;52.008;4.708;2023-05-11T01:37:13;101504.06;;;15.97;100.00
19831;BME280;10076;52.008;4.708;2023-05-11T01:39:49;101494.03;;;15.79;100.00
19831;BME280;10076;52.008;4.708;2023-05-11T01:42:17;101499.06;;;15.61;100.00
19831;BME280;10076;52.008;4.708;2023-05-11T01:44:48;101494.84;;;15.59;100.00
19831;BME280;10076;52.008;4.708;2023-05-11T01:47:16;101501.25;;;15.45;100.00
19831;BME280;10076;52.008;4.708;2023-05-11T01:49:43;101503.19;;;15.43;100.00
19831;BME280;10076;52.008;4.708;2023-05-11T01:52:10;101507.06;;;15.50;100.00
19831;BME280;10076;52.008;4.708;2023-05-11T01:54:37;101508.16;;;15.48;100.00
19831;BME280;10076;52.008;4.708;2023-05-11T01:57:04;101501.63;;;15.52;100.00
19831;BME280;10076;52.008;4.708;2023-05-11T01:59:31;101507.75;;;15.63;100.00
19831;BME280;10076;52.008;4.708;2023-05-11T02:01:59;101505.69;;;15.67;100.00
19831;BME280;10076;52.008;4.708;2023-05-11T02:04:27;101504.75;;;15.57;100.00
19831;BME280;10076;52.008;4.708;2023-05-11T02:06:55;101511.78;;;15.58;100.00
19831;BME280;10076;52.008;4.708;2023-05-11T02:09:23;101504.16;;;15.53;100.00
19831;BME280;10076;52.008;4.708;2023-05-11T02:11:50;101509.94;;;15.58;100.00
19831;BME280;10076;52.008;4.708;2023-05-11T02:14:18;101517.22;;;15.67;100.00
19831;BME280;10076;52.008;4.708;2023-05-11T02:16:46;101513.19;;;15.73;100.00
19831;BME280;10076;52.008;4.708;2023-05-11T02:19:13;101511.59;;;15.81;100.00
19831;BME280;10076;52.008;4.708;2023-05-11T02:21:39;101520.91;;;15.87;100.00
19831;BME280;10076;52.008;4.708;2023-05-11T02:24:07;101522.06;;;16.04;100.00
19831;BME280;10076;52.008;4.708;2023-05-11T02:26:32;101516.28;;;15.99;100.00
19831;BME280;10076;52.008;4.708;2023-05-11T02:28:58;101521.97;;;15.95;100.00
19831;BME280;10076;52.008;4.708;2023-05-11T02:31:28;101517.16;;;15.89;100.00
19831;BME280;10076;52.008;4.708;2023-05-11T02:33:59;101521.41;;;15.81;100.00
19831;BME280;10076;52.008;4.708;2023-05-11T02:36:28;101521.50;;;15.90;100.00
19831;BME280;10076;52.008;4.708;2023-05-11T02:39:02;101518.00;;;15.79;100.00
19831;BME280;10076;52.008;4.708;2023-05-11T02:41:28;101516.56;;;15.86;100.00
19831;BME280;10076;52.008;4.708;2023-05-11T02:43:59;101509.31;;;15.77;100.00
19831;BME280;10076;52.008;4.708;2023-05-11T02:46:29;101510.31;;;15.65;100.00
19831;BME280;10076;52.008;4.708;2023-05-11T02:48:58;101509.81;;;15.60;100.00
19831;BME280;10076;52.008;4.708;2023-05-11T02:51:36;101508.84;;;15.61;100.00
19831;BME280;10076;52.008;4.708;2023-05-11T02:54:05;101507.38;;;15.68;100.00
19831;BME280;10076;52.008;4.708;2023-05-11T02:56:31;101516.56;;;15.75;100.00
19831;BME280;10076;52.008;4.708;2023-05-11T02:58:57;101519.00;;;15.67;100.00
19831;BME280;10076;52.008;4.708;2023-05-11T03:01:23;101515.25;;;15.69;100.00
19831;BME280;10076;52.008;4.708;2023-05-11T03:03:48;101521.66;;;15.67;100.00
19831;BME280;10076;52.008;4.708;2023-05-11T03:06:13;101521.47;;;15.59;100.00
19831;BME280;10076;52.008;4.708;2023-05-11T03:08:40;101521.69;;;15.56;100.00
19831;BME280;10076;52.008;4.708;2023-05-11T03:11:06;101520.72;;;15.57;100.00
19831;BME280;10076;52.008;4.708;2023-05-11T03:13:33;101516.22;;;15.57;100.00
19831;BME280;10076;52.008;4.708;2023-05-11T03:15:59;101514.06;;;15.62;100.00
19831;BME280;10076;52.008;4.708;2023-05-11T03:18:27;101518.31;;;15.65;100.00
19831;BME280;10076;52.008;4.708;2023-05-11T03:20:53;101517.06;;;15.69;100.00
19831;BME280;10076;52.008;4.708;2023-05-11T03:23:18;101510.31;;;15.65;100.00
19831;BME280;10076;52.008;4.708;2023-05-11T03:25:45;101513.94;;;15.64;100.00
19831;BME280;10076;52.008;4.708;2023-05-11T03:28:12;101503.53;;;15.61;100.00
19831;BME280;10076;52.008;4.708;2023-05-11T03:30:39;101508.75;;;15.62;100.00
19831;BME280;10076;52.008;4.708;2023-05-11T03:33:07;101506.56;;;15.67;100.00
19831;BME280;10076;52.008;4.708;2023-05-11T03:35:33;101507.06;;;15.61;100.00
19831;BME280;10076;52.008;4.708;2023-05-11T03:38:01;101510.53;;;15.62;100.00
19831;BME280;10076;52.008;4.708;2023-05-11T03:40:28;101503.63;;;15.70;100.00
19831;BME280;10076;52.008;4.708;2023-05-11T03:42:57;101508.09;;;15.81;100.00
19831;BME280;10076;52.008;4.708;2023-05-11T03:45:27;101500.72;;;15.73;100.00
19831;BME280;10076;52.008;4.708;2023-05-11T03:47:55;101500.38;;;15.67;100.00
19831;BME280;10076;52.008;4.708;2023-05-11T03:50:21;101497.00;;;15.65;100.00
19831;BME280;10076;52.008;4.708;2023-05-11T03:52:47;101501.34;;;15.66;100.00
19831;BME280;10076;52.008;4.708;2023-05-11T03:55:13;101491.69;;;15.65;100.00
19831;BME280;10076;52.008;4.708;2023-05-11T03:57:38;101499.06;;;15.61;100.00
19831;BME280;10076;52.008;4.708;2023-05-11T04:00:04;101497.38;;;15.60;100.00
19831;BME280;10076;52.008;4.708;2023-05-11T04:02:30;101503.78;;;15.58;100.00
19831;BME280;10076;52.008;4.708;2023-05-11T04:04:55;101498.94;;;15.52;100.00
19831;BME280;10076;52.008;4.708;2023-05-11T04:07:20;101502.34;;;15.54;100.00
19831;BME280;10076;52.008;4.708;2023-05-11T04:09:46;101500.16;;;15.59;100.00
19831;BME280;10076;52.008;4.708;2023-05-11T04:12:11;101505.38;;;15.49;100.00
19831;BME280;10076;52.008;4.708;2023-05-11T04:14:36;101498.81;;;15.53;100.00
19831;BME280;10076;52.008;4.708;2023-05-11T04:17:01;101499.56;;;15.55;100.00
19831;BME280;10076;52.008;4.708;2023-05-11T04:19:27;101500.38;;;15.56;100.00
19831;BME280;10076;52.008;4.708;2023-05-11T04:21:52;101501.63;;;15.52;100.00
19831;BME280;10076;52.008;4.708;2023-05-11T04:24:18;101510.44;;;15.52;100.00
19831;BME280;10076;52.008;4.708;2023-05-11T04:26:43;101512.13;;;15.53;100.00
19831;BME280;10076;52.008;4.708;2023-05-11T04:29:08;101509.34;;;15.55;100.00
19831;BME280;10076;52.008;4.708;2023-05-11T04:31:34;101511.03;;;15.56;100.00
19831;BME280;10076;52.008;4.708;2023-05-11T04:33:59;101513.47;;;15.59;100.00
19831;BME280;10076;52.008;4.708;2023-05-11T04:36:24;101517.56;;;15.63;100.00
19831;BME280;10076;52.008;4.708;2023-05-11T04:38:50;101517.31;;;15.66;100.00
19831;BME280;10076;52.008;4.708;2023-05-11T04:41:17;101515.25;;;15.69;100.00
19831;BME280;10076;52.008;4.708;2023-05-11T04:43:42;101516.31;;;15.78;100.00
19831;BME280;10076;52.008;4.708;2023-05-11T04:46:07;101523.22;;;15.91;100.00
19831;BME280;10076;52.008;4.708;2023-05-11T04:48:33;101521.72;;;15.98;100.00
19831;BME280;10076;52.008;4.708;2023-05-11T04:50:58;101521.34;;;16.02;100.00
19831;BME280;10076;52.008;4.708;2023-05-11T04:53:23;101531.75;;;16.05;100.00
19831;BME280;10076;52.008;4.708;2023-05-11T04:55:49;101525.66;;;16.14;100.00
19831;BME280;10076;52.008;4.708;2023-05-11T04:58:14;101523.78;;;16.05;100.00
19831;BME280;10076;52.008;4.708;2023-05-11T05:00:40;101523.38;;;16.10;100.00
19831;BME280;10076;52.008;4.708;2023-05-11T05:03:05;101522.25;;;16.12;100.00
19831;BME280;10076;52.008;4.708;2023-05-11T05:05:30;101533.88;;;16.22;100.00
19831;BME280;10076;52.008;4.708;2023-05-11T05:07:55;101530.81;;;16.27;100.00
19831;BME280;10076;52.008;4.708;2023-05-11T05:10:21;101527.09;;;16.29;100.00
19831;BME280;10076;52.008;4.708;2023-05-11T05:12:46;101534.00;;;16.32;100.00
19831;BME280;10076;52.008;4.708;2023-05-11T05:15:12;101532.25;;;16.42;100.00
19831;BME280;10076;52.008;4.708;2023-05-11T05:17:37;101539.91;;;16.66;100.00
19831;BME280;10076;52.008;4.708;2023-05-11T05:20:03;101539.53;;;16.60;100.00
19831;BME280;10076;52.008;4.708;2023-05-11T05:22:29;101542.44;;;16.68;100.00
19831;BME280;10076;52.008;4.708;2023-05-11T05:24:55;101549.25;;;16.61;100.00
19831;BME280;10076;52.008;4.708;2023-05-11T05:27:21;101549.97;;;16.63;100.00
19831;BME280;10076;52.008;4.708;2023-05-11T05:29:46;101551.41;;;16.67;100.00
19831;BME280;10076;52.008;4.708;2023-05-11T05:32:11;101550.66;;;16.65;100.00
19831;BME280;10076;52.008;4.708;2023-05-11T05:34:36;101566.28;;;16.90;100.00
19831;BME280;10076;52.008;4.708;2023-05-11T05:37:02;101559.66;;;16.84;100.00
19831;BME280;10076;52.008;4.708;2023-05-11T05:39:27;101558.28;;;16.90;100.00
19831;BME280;10076;52.008;4.708;2023-05-11T05:41:52;101555.41;;;16.82;100.00
19831;BME280;10076;52.008;4.708;2023-05-11T05:44:17;101565.56;;;16.88;100.00
19831;BME280;10076;52.008;4.708;2023-05-11T05:46:43;101565.91;;;16.94;100.00
19831;BME280;10076;52.008;4.708;2023-05-11T05:49:08;101567.03;;;16.92;100.00
19831;BME280;10076;52.008;4.708;2023-05-11T05:51:34;101567.09;;;16.81;100.00
19831;BME280;10076;52.008;4.708;2023-05-11T05:53:59;101568.31;;;16.77;100.00
19831;BME280;10076;52.008;4.708;2023-05-11T05:56:24;101570.84;;;16.78;100.00
19831;BME280;10076;52.008;4.708;2023-05-11T05:58:50;101572.88;;;16.86;100.00
19831;BME280;10076;52.008;4.708;2023-05-11T06:01:16;101572.16;;;16.84;100.00
19831;BME280;10076;52.008;4.708;2023-05-11T06:03:41;101573.78;;;16.96;100.00
19831;BME280;10076;52.008;4.708;2023-05-11T06:06:08;101573.41;;;17.00;100.00
19831;BME280;10076;52.008;4.708;2023-05-11T06:08:34;101573.97;;;17.04;100.00
19831;BME280;10076;52.008;4.708;2023-05-11T06:10:59;101574.44;;;17.09;100.00
19831;BME280;10076;52.008;4.708;2023-05-11T06:13:25;101567.91;;;17.02;100.00
19831;BME280;10076;52.008;4.708;2023-05-11T06:15:50;101578.31;;;17.05;100.00
19831;BME280;10076;52.008;4.708;2023-05-11T06:18:15;101571.69;;;17.20;100.00
19831;BME280;10076;52.008;4.708;2023-05-11T06:20:41;101578.13;;;17.17;100.00
19831;BME280;10076;52.008;4.708;2023-05-11T06:23:06;101588.66;;;17.19;100.00
19831;BME280;10076;52.008;4.708;2023-05-11T06:25:34;101589.19;;;17.33;100.00
19831;BME280;10076;52.008;4.708;2023-05-11T06:28:00;101587.84;;;17.38;100.00
19831;BME280;10076;52.008;4.708;2023-05-11T06:30:25;101590.47;;;17.59;100.00
19831;BME280;10076;52.008;4.708;2023-05-11T06:32:51;101590.41;;;17.49;100.00
19831;BME280;10076;52.008;4.708;2023-05-11T06:35:16;101588.88;;;17.56;100.00
19831;BME280;10076;52.008;4.708;2023-05-11T06:37:41;101592.09;;;17.50;100.00
19831;BME280;10076;52.008;4.708;2023-05-11T06:40:07;101589.34;;;17.61;100.00
19831;BME280;10076;52.008;4.708;2023-05-11T06:42:32;101593.19;;;17.78;100.00
19831;BME280;10076;52.008;4.708;2023-05-11T06:44:58;101591.31;;;17.59;100.00
19831;BME280;10076;52.008;4.708;2023-05-11T06:47:23;101590.94;;;17.43;100.00
19831;BME280;10076;52.008;4.708;2023-05-11T06:49:48;101591.06;;;17.72;100.00
19831;BME280;10076;52.008;4.708;2023-05-11T06:52:14;101592.13;;;17.60;100.00
19831;BME280;10076;52.008;4.708;2023-05-11T06:54:39;101592.13;;;17.60;100.00
19831;BME280;10076;52.008;4.708;2023-05-11T06:57:04;101596.94;;;17.66;100.00
19831;BME280;10076;52.008;4.708;2023-05-11T06:59:30;101601.41;;;17.56;100.00
19831;BME280;10076;52.008;4.708;2023-05-11T07:01:56;101602.28;;;17.66;100.00
19831;BME280;10076;52.008;4.708;2023-05-11T07:04:21;101597.84;;;17.76;100.00
19831;BME280;10076;52.008;4.708;2023-05-11T07:06:47;101594.50;;;17.83;100.00
19831;BME280;10076;52.008;4.708;2023-05-11T07:09:12;101596.97;;;17.75;100.00
19831;BME280;10076;52.008;4.708;2023-05-11T07:11:37;101600.88;;;17.62;100.00
19831;BME280;10076;52.008;4.708;2023-05-11T07:14:03;101601.34;;;17.76;100.00
19831;BME280;10076;52.008;4.708;2023-05-11T07:16:28;101603.47;;;17.82;100.00
19831;BME280;10076;52.008;4.708;2023-05-11T07:18:53;101607.84;;;17.83;100.00
19831;BME280;10076;52.008;4.708;2023-05-11T07:21:19;101605.53;;;17.69;100.00
19831;BME280;10076;52.008;4.708;2023-05-11T07:23:46;101599.09;;;17.81;100.00
19831;BME280;10076;52.008;4.708;2023-05-11T07:26:11;101604.09;;;17.95;100.00
19831;BME280;10076;52.008;4.708;2023-05-11T07:28:37;101602.94;;;17.88;100.00
19831;BME280;10076;52.008;4.708;2023-05-11T07:31:03;101604.41;;;18.11;100.00
19831;BME280;10076;52.008;4.708;2023-05-11T07:33:28;101605.69;;;18.16;100.00
19831;BME280;10076;52.008;4.708;2023-05-11T07:35:53;101607.97;;;18.21;100.00
19831;BME280;10076;52.008;4.708;2023-05-11T07:38:19;101611.66;;;18.39;100.00
19831;BME280;10076;52.008;4.708;2023-05-11T07:40:45;101605.06;;;18.43;100.00
19831;BME280;10076;52.008;4.708;2023-05-11T07:43:10;101603.50;;;18.31;100.00
19831;BME280;10076;52.008;4.708;2023-05-11T07:45:35;101609.56;;;18.52;100.00
19831;BME280;10076;52.008;4.708;2023-05-11T07:48:01;101601.94;;;18.38;100.00
19831;BME280;10076;52.008;4.708;2023-05-11T07:50:26;101609.97;;;18.38;100.00
19831;BME280;10076;52.008;4.708;2023-05-11T07:52:51;101614.19;;;18.31;100.00
19831;BME280;10076;52.008;4.708;2023-05-11T07:55:17;101614.31;;;18.29;100.00
19831;BME280;10076;52.008;4.708;2023-05-11T07:57:44;101609.72;;;18.60;100.00
19831;BME280;10076;52.008;4.708;2023-05-11T08:00:10;101609.16;;;18.56;100.00
19831;BME280;10076;52.008;4.708;2023-05-11T08:02:35;101616.47;;;18.54;100.00
19831;BME280;10076;52.008;4.708;2023-05-11T08:05:01;101614.66;;;18.83;100.00
19831;BME280;10076;52.008;4.708;2023-05-11T08:07:26;101612.63;;;19.04;100.00
19831;BME280;10076;52.008;4.708;2023-05-11T08:09:51;101611.25;;;19.09;100.00
19831;BME280;10076;52.008;4.708;2023-05-11T08:12:17;101611.81;;;19.03;100.00
19831;BME280;10076;52.008;4.708;2023-05-11T08:14:42;101606.84;;;19.37;100.00
19831;BME280;10076;52.008;4.708;2023-05-11T08:17:07;101609.91;;;19.51;100.00
19831;BME280;10076;52.008;4.708;2023-05-11T08:19:33;101616.28;;;19.31;100.00
19831;BME280;10076;52.008;4.708;2023-05-11T08:21:59;101616.75;;;19.63;100.00
19831;BME280;10076;52.008;4.708;2023-05-11T08:24:24;101610.59;;;19.89;100.00
19831;BME280;10076;52.008;4.708;2023-05-11T08:26:50;101626.00;;;20.14;100.00
19831;BME280;10076;52.008;4.708;2023-05-11T08:29:15;101613.06;;;20.27;100.00
19831;BME280;10076;52.008;4.708;2023-05-11T08:31:40;101614.94;;;20.44;100.00
19831;BME280;10076;52.008;4.708;2023-05-11T08:34:06;101616.69;;;20.70;100.00
19831;BME280;10076;52.008;4.708;2023-05-11T08:36:33;101609.72;;;20.60;100.00
19831;BME280;10076;52.008;4.708;2023-05-11T08:38:58;101614.47;;;20.48;100.00
19831;BME280;10076;52.008;4.708;2023-05-11T08:41:24;101616.69;;;20.35;100.00
19831;BME280;10076;52.008;4.708;2023-05-11T08:43:49;101609.19;;;20.56;100.00
19831;BME280;10076;52.008;4.708;2023-05-11T08:46:20;101618.09;;;20.74;100.00
19831;BME280;10076;52.008;4.708;2023-05-11T08:48:47;101610.50;;;20.87;100.00
19831;BME280;10076;52.008;4.708;2023-05-11T08:51:12;101614.38;;;21.27;100.00
19831;BME280;10076;52.008;4.708;2023-05-11T08:53:38;101613.28;;;21.63;100.00
19831;BME280;10076;52.008;4.708;2023-05-11T08:56:06;101615.22;;;21.86;100.00
19831;BME280;10076;52.008;4.708;2023-05-11T08:58:33;101610.28;;;22.48;100.00
19831;BME280;10076;52.008;4.708;2023-05-11T09:00:58;101604.63;;;23.07;100.00
19831;BME280;10076;52.008;4.708;2023-05-11T09:03:25;101613.66;;;23.54;100.00
19831;BME280;10076;52.008;4.708;2023-05-11T09:05:53;101618.38;;;23.98;100.00
19831;BME280;10076;52.008;4.708;2023-05-11T09:08:20;101605.59;;;24.30;100.00
19831;BME280;10076;52.008;4.708;2023-05-11T09:10:48;101616.16;;;24.47;100.00
19831;BME280;10076;52.008;4.708;2023-05-11T09:13:13;101612.78;;;24.45;100.00
19831;BME280;10076;52.008;4.708;2023-05-11T09:15:38;101613.66;;;24.38;100.00
19831;BME280;10076;52.008;4.708;2023-05-11T09:18:04;101617.28;;;24.23;100.00
19831;BME280;10076;52.008;4.708;2023-05-11T09:20:31;101615.00;;;24.04;100.00
19831;BME280;10076;52.008;4.708;2023-05-11T09:22:57;101617.63;;;23.81;100.00
19831;BME280;10076;52.008;4.708;2023-05-11T09:25:23;101616.53;;;23.36;100.00
19831;BME280;10076;52.008;4.708;2023-05-11T09:27:49;101621.59;;;23.23;100.00
19831;BME280;10076;52.008;4.708;2023-05-11T09:30:15;101619.91;;;22.91;100.00
19831;BME280;10076;52.008;4.708;2023-05-11T09:32:49;101622.34;;;22.44;100.00
19831;BME280;10076;52.008;4.708;2023-05-11T09:35:25;101614.00;;;22.14;100.00
19831;BME280;10076;52.008;4.708;2023-05-11T09:38:09;101610.72;;;21.61;100.00
19831;BME280;10076;52.008;4.708;2023-05-11T09:40:37;101615.34;;;21.52;100.00
19831;BME280;10076;52.008;4.708;2023-05-11T09:43:15;101611.97;;;21.24;100.00
19831;BME280;10076;52.008;4.708;2023-05-11T09:45:42;101612.19;;;21.05;100.00
19831;BME280;10076;52.008;4.708;2023-05-11T09:48:23;101612.22;;;21.13;100.00
19831;BME280;10076;52.008;4.708;2023-05-11T09:50:50;101613.56;;;20.92;100.00
19831;BME280;10076;52.008;4.708;2023-05-11T09:53:16;101620.25;;;20.88;100.00
19831;BME280;10076;52.008;4.708;2023-05-11T09:55:53;101616.66;;;20.97;100.00
19831;BME280;10076;52.008;4.708;2023-05-11T09:58:19;101616.78;;;20.95;100.00
19831;BME280;10076;52.008;4.708;2023-05-11T10:00:52;101615.63;;;20.98;100.00
19831;BME280;10076;52.008;4.708;2023-05-11T10:03:20;101614.91;;;21.13;100.00
19831;BME280;10076;52.008;4.708;2023-05-11T10:05:59;101613.44;;;20.93;100.00
19831;BME280;10076;52.008;4.708;2023-05-11T10:08:29;101618.22;;;21.07;100.00
19831;BME280;10076;52.008;4.708;2023-05-11T10:10:55;101618.31;;;20.98;100.00
19831;BME280;10076;52.008;4.708;2023-05-11T10:13:21;101615.41;;;20.74;100.00
19831;BME280;10076;52.008;4.708;2023-05-11T10:15:50;101620.03;;;20.82;100.00
19831;BME280;10076;52.008;4.708;2023-05-11T10:18:16;101617.25;;;20.74;100.00
19831;BME280;10076;52.008;4.708;2023-05-11T10:20:42;101613.19;;;20.87;100.00
19831;BME280;10076;52.008;4.708;2023-05-11T10:23:09;101611.75;;;20.92;100.00
19831;BME280;10076;52.008;4.708;2023-05-11T10:25:35;101612.03;;;20.72;100.00
19831;BME280;10076;52.008;4.708;2023-05-11T10:28:01;101616.56;;;20.54;100.00
19831;BME280;10076;52.008;4.708;2023-05-11T10:30:27;101615.34;;;20.66;100.00
19831;BME280;10076;52.008;4.708;2023-05-11T10:32:54;101614.69;;;20.55;100.00
19831;BME280;10076;52.008;4.708;2023-05-11T10:35:21;101613.84;;;20.37;100.00
19831;BME280;10076;52.008;4.708;2023-05-11T10:37:46;101619.47;;;20.16;100.00
19831;BME280;10076;52.008;4.708;2023-05-11T10:40:12;101614.09;;;20.43;100.00
19831;BME280;10076;52.008;4.708;2023-05-11T10:48:41;101618.63;;;19.99;100.00
19831;BME280;10076;52.008;4.708;2023-05-11T10:56:36;101619.06;;;19.58;100.00
19831;BME280;10076;52.008;4.708;2023-05-11T11:01:56;101619.25;;;19.74;100.00
19831;BME280;10076;52.008;4.708;2023-05-11T11:04:46;101617.03;;;19.60;100.00
19831;BME280;10076;52.008;4.708;2023-05-11T11:07:13;101616.28;;;19.31;100.00
19831;BME280;10076;52.008;4.708;2023-05-11T11:12:18;101615.31;;;19.32;100.00
19831;BME280;10076;52.008;4.708;2023-05-11T11:19:44;101621.91;;;21.24;100.00
19831;BME280;10076;52.008;4.708;2023-05-11T11:25:01;101626.38;;;24.60;100.00
19831;BME280;10076;52.008;4.708;2023-05-11T11:30:27;101624.78;;;22.71;100.00
19831;BME280;10076;52.008;4.708;2023-05-11T11:38:17;101611.88;;;20.74;100.00
19831;BME280;10076;52.008;4.708;2023-05-11T11:40:47;101618.59;;;20.25;100.00
19831;BME280;10076;52.008;4.708;2023-05-11T11:43:27;101614.28;;;20.15;100.00
19831;BME280;10076;52.008;4.708;2023-05-11T11:46:00;101620.59;;;19.97;100.00
19831;BME280;10076;52.008;4.708;2023-05-11T11:51:02;101631.59;;;19.94;100.00
19831;BME280;10076;52.008;4.708;2023-05-11T11:55:59;101639.41;;;19.32;100.00
19831;BME280;10076;52.008;4.708;2023-05-11T12:01:06;101623.94;;;18.51;100.00
19831;BME280;10076;52.008;4.708;2023-05-11T12:03:35;101627.97;;;18.26;100.00
19831;BME280;10076;52.008;4.708;2023-05-11T12:06:02;101631.34;;;18.28;100.00
19831;BME280;10076;52.008;4.708;2023-05-11T12:08:29;101630.13;;;18.61;100.00
19831;BME280;10076;52.008;4.708;2023-05-11T12:10:58;101630.97;;;18.89;100.00
19831;BME280;10076;52.008;4.708;2023-05-11T12:13:24;101638.59;;;18.84;100.00
19831;BME280;10076;52.008;4.708;2023-05-11T12:15:50;101636.47;;;18.78;100.00
19831;BME280;10076;52.008;4.708;2023-05-11T12:18:31;101642.81;;;18.87;100.00
19831;BME280;10076;52.008;4.708;2023-05-11T12:20:56;101644.50;;;19.07;100.00
19831;BME280;10076;52.008;4.708;2023-05-11T12:23:21;101642.81;;;19.25;100.00
19831;BME280;10076;52.008;4.708;2023-05-11T12:25:59;101634.34;;;19.29;100.00
19831;BME280;10076;52.008;4.708;2023-05-11T12:28:24;101637.31;;;19.26;100.00
19831;BME280;10076;52.008;4.708;2023-05-11T12:30:54;101638.28;;;19.25;100.00
19831;BME280;10076;52.008;4.708;2023-05-11T12:33:20;101639.66;;;19.48;100.00
19831;BME280;10076;52.008;4.708;2023-05-11T12:35:51;101634.75;;;19.43;100.00
19831;BME280;10076;52.008;4.708;2023-05-11T12:38:17;101649.56;;;19.29;100.00
19831;BME280;10076;52.008;4.708;2023-05-11T12:40:49;101638.28;;;19.35;100.00
19831;BME280;10076;52.008;4.708;2023-05-11T12:43:19;101637.69;;;19.41;100.00
19831;BME280;10076;52.008;4.708;2023-05-11T12:45:45;101650.53;;;19.37;100.00
19831;BME280;10076;52.008;4.708;2023-05-11T12:48:11;101651.47;;;19.55;100.00
19831;BME280;10076;52.008;4.708;2023-05-11T12:50:44;101649.00;;;19.35;100.00
19831;BME280;10076;52.008;4.708;2023-05-11T12:53:14;101647.69;;;19.39;100.00
19831;BME280;10076;52.008;4.708;2023-05-11T12:55:41;101648.66;;;19.47;100.00
19831;BME280;10076;52.008;4.708;2023-05-11T12:58:15;101648.25;;;19.51;100.00
19831;BME280;10076;52.008;4.708;2023-05-11T13:00:53;101643.75;;;19.42;100.00
19831;BME280;10076;52.008;4.708;2023-05-11T13:03:27;101652.78;;;19.51;100.00
19831;BME280;10076;52.008;4.708;2023-05-11T13:06:09;101660.31;;;19.65;100.00
19831;BME280;10076;52.008;4.708;2023-05-11T13:08:36;101655.50;;;19.78;100.00
19831;BME280;10076;52.008;4.708;2023-05-11T13:11:21;101648.72;;;19.93;100.00
19831;BME280;10076;52.008;4.708;2023-05-11T13:13:51;101651.50;;;20.27;100.00
19831;BME280;10076;52.008;4.708;2023-05-11T13:16:30;101650.66;;;20.44;100.00
19831;BME280;10076;52.008;4.708;2023-05-11T13:19:02;101643.06;;;20.40;100.00
19831;BME280;10076;52.008;4.708;2023-05-11T13:21:28;101643.91;;;20.40;100.00
19831;BME280;10076;52.008;4.708;2023-05-11T13:23:55;101638.13;;;20.62;100.00
19831;BME280;10076;52.008;4.708;2023-05-11T13:26:21;101637.91;;;20.90;100.00
19831;BME280;10076;52.008;4.708;2023-05-11T13:28:48;101639.88;;;21.06;100.00
19831;BME280;10076;52.008;4.708;2023-05-11T13:31:13;101647.22;;;21.21;100.00
19831;BME280;10076;52.008;4.708;2023-05-11T13:33:39;101648.06;;;21.22;100.00
19831;BME280;10076;52.008;4.708;2023-05-11T13:36:04;101641.63;;;21.15;100.00